Herrin, Illinois
Current Conditions -  °F | °C
As of 6:45 AM on Saturday 25 Oct 2014 (Local Time) from KMWA Reporting Station
Scattered Clouds Scattered Clouds  
Wind Chill: 57°   Ceiling: Unl
Heat Index: 57°   Visibility: 20mi
Dew Point: 55°   Wind: 6mph
Humidity: 94%   Direction: 210°SSW
Pressure: 30.04"   Gusts: NA
Location:  37.81°N, 89.03°W
Report Text: KMWA 251145Z 21005KT 20SM SCT150 14/13 A3004
Loading
Personal Weather Stations






























Interactive Weather Map
Tropical Storm Tracking
New forecast layout! Learn more

10-Day Weather Forecast

Advertisements
Track Severe Weather on mobile